Time;durP1;ratioP1;P1;durP2;ratioP2;P2;SDS_P1;SDS_P2;PMS_P1;PMS_P2;Temp;Humidity;BMP_temperature;BMP_pressure;BME280_temperature;BME280_humidity;BME280_pressure;Samples;Min_cycle;Max_cycle;Signal;HPM_P1;HPM_P2
2021/01/22 00:00:53;;;;;;;42.60;22.70;;;;;;;-1.96;82.69;99372.64;124478;1143;23695;-73
2021/01/22 00:03:21;;;;;;;39.27;21.83;;;;;;;-1.96;82.85;99377.98;124569;1143;22861;-73
2021/01/22 00:05:48;;;;;;;42.93;21.77;;;;;;;-1.96;82.57;99373.47;123519;1143;22939;-72
2021/01/22 00:08:16;;;;;;;44.43;23.17;;;;;;;-1.98;82.57;99367.48;124549;1143;22799;-73
2021/01/22 00:10:44;;;;;;;45.73;22.83;;;;;;;-1.99;82.31;99363.15;124645;1143;22800;-72
2021/01/22 00:13:11;;;;;;;41.57;22.57;;;;;;;-1.99;82.81;99364.98;124571;1144;22686;-73
2021/01/22 00:15:38;;;;;;;45.50;22.70;;;;;;;-2.01;82.81;99362.50;124785;1142;22699;-72
2021/01/22 00:18:06;;;;;;;47.53;23.30;;;;;;;-2.03;82.94;99367.22;124571;1144;23284;-73
2021/01/22 00:20:33;;;;;;;43.80;23.50;;;;;;;-2.00;83.10;99355.31;124701;1144;22719;-72
2021/01/22 00:23:04;;;;;;;45.63;22.87;;;;;;;-2.00;83.12;99357.98;124674;1144;23271;-72
2021/01/22 00:25:31;;;;;;;42.33;22.97;;;;;;;-1.97;83.09;99357.62;124730;1144;22763;-72
2021/01/22 00:27:58;;;;;;;45.70;23.30;;;;;;;-1.97;83.19;99352.30;124592;1143;22696;-72
2021/01/22 00:30:26;;;;;;;44.43;22.43;;;;;;;-1.94;83.19;99363.45;124624;1142;22774;-73
2021/01/22 00:32:53;;;;;;;44.73;22.73;;;;;;;-1.93;83.28;99359.77;124571;1143;22675;-73
2021/01/22 00:35:21;;;;;;;46.20;22.93;;;;;;;-1.93;83.38;99349.09;124624;1143;22781;-72
2021/01/22 00:37:48;;;;;;;42.47;22.60;;;;;;;-1.92;83.18;99349.92;124529;1143;23465;-72
2021/01/22 00:40:15;;;;;;;45.43;23.50;;;;;;;-1.92;83.24;99344.58;124624;1143;22702;-73
2021/01/22 00:42:43;;;;;;;50.50;24.97;;;;;;;-1.91;83.43;99340.90;124665;1143;24195;-72
2021/01/22 00:45:11;;;;;;;51.50;26.17;;;;;;;-1.92;83.67;99336.57;124589;1144;22656;-72
2021/01/22 00:47:38;;;;;;;49.90;24.43;;;;;;;-1.91;83.52;99332.89;124377;1144;23618;-72
2021/01/22 00:50:06;;;;;;;45.17;24.73;;;;;;;-1.91;83.53;99325.70;124768;1144;22778;-72
2021/01/22 00:52:35;;;;;;;51.63;25.07;;;;;;;-1.91;83.53;99330.22;124581;1144;27757;-73
2021/01/22 00:55:04;;;;;;;51.50;24.47;;;;;;;-1.94;83.68;99328.73;124407;1144;22796;-73
2021/01/22 00:57:41;;;;;;;46.48;23.15;;;;;;;-1.93;84.07;99324.23;124738;1142;22683;-73
2021/01/22 01:00:09;;;;;;;46.73;22.67;;;;;;;-1.94;83.57;99326.06;124318;1145;23557;-72
2021/01/22 01:02:39;;;;;;;49.67;23.90;;;;;;;-1.95;83.42;99316.40;124532;1143;23929;-72
2021/01/22 01:05:08;;;;;;;51.23;24.37;;;;;;;-1.93;83.91;99319.72;124539;1144;22695;-68
2021/01/22 01:07:38;;;;;;;48.10;22.67;;;;;;;-1.92;84.20;99318.71;124438;1144;23861;-72
2021/01/22 01:10:06;;;;;;;49.20;24.63;;;;;;;-1.92;83.93;99318.71;124612;1143;22700;-72
2021/01/22 01:12:53;;;;;;;53.42;24.92;;;;;;;-1.92;84.01;99318.71;124580;1144;22772;-73
2021/01/22 01:15:39;;;;;;;45.00;21.93;;;;;;;-1.93;84.07;99317.05;124540;1144;22662;-73
2021/01/22 01:18:07;;;;;;;50.87;24.73;;;;;;;-1.91;84.85;99311.53;124403;1144;23701;-72
2021/01/22 01:20:35;;;;;;;49.20;24.30;;;;;;;-1.91;84.14;99315.03;124481;1144;22701;-73
2021/01/22 01:23:02;;;;;;;48.60;22.67;;;;;;;-1.90;84.24;99298.00;124549;1144;22688;-73
2021/01/22 01:25:30;;;;;;;53.73;25.13;;;;;;;-1.90;84.21;99289.16;124616;1143;22796;-73
2021/01/22 01:27:57;;;;;;;48.37;24.73;;;;;;;-1.89;84.16;99301.50;124767;1144;22656;-72
2021/01/22 01:30:25;;;;;;;46.80;23.60;;;;;;;-1.90;84.20;99300.67;124553;1144;22758;-72
2021/01/22 01:32:52;;;;;;;51.87;25.07;;;;;;;-1.90;84.40;99289.99;124684;1144;22711;-72
2021/01/22 01:35:20;;;;;;;51.60;24.97;;;;;;;-1.88;84.29;99293.31;124419;1144;23252;-72
2021/01/22 01:37:47;;;;;;;48.47;24.87;;;;;;;-1.88;84.55;99295.98;124704;1143;23514;-73
2021/01/22 01:40:15;;;;;;;48.87;24.77;;;;;;;-1.84;84.38;99289.23;124454;1142;22703;-73
2021/01/22 01:42:43;;;;;;;57.23;28.03;;;;;;;-1.84;84.46;99283.90;124607;1144;22655;-72
2021/01/22 01:45:12;;;;;;;46.70;22.37;;;;;;;-1.85;84.54;99271.56;124640;1143;23498;-72
2021/01/22 01:47:39;;;;;;;46.30;23.93;;;;;;;-1.84;84.43;99267.05;124625;1142;22673;-72
2021/01/22 01:50:07;;;;;;;46.83;23.97;;;;;;;-1.84;84.56;99267.88;124703;1143;22678;-72
2021/01/22 01:52:35;;;;;;;47.40;24.00;;;;;;;-1.82;84.59;99265.86;124457;1144;22709;-72
2021/01/22 01:55:03;;;;;;;52.03;25.43;;;;;;;-1.82;84.50;99265.86;124501;1143;22781;-73
2021/01/22 01:57:31;;;;;;;45.27;23.40;;;;;;;-1.82;84.22;99268.52;124458;1144;22686;-72
2021/01/22 01:59:59;;;;;;;45.73;22.07;;;;;;;-1.82;84.77;99271.20;124481;1144;22692;-73
2021/01/22 02:02:31;;;;;;;43.90;21.90;;;;;;;-1.82;84.66;99265.86;124465;1143;22800;-73
2021/01/22 02:04:59;;;;;;;53.03;25.10;;;;;;;-1.81;84.73;99259.50;124573;1142;22688;-72
2021/01/22 02:07:27;;;;;;;47.73;23.10;;;;;;;-1.80;84.69;99250.48;124456;1143;22691;-73
2021/01/22 02:09:54;;;;;;;45.97;24.07;;;;;;;-1.78;83.93;99242.29;124779;1144;22664;-72
2021/01/22 02:12:22;;;;;;;48.17;25.27;;;;;;;-1.80;84.87;99252.32;124383;1145;22689;-73
2021/01/22 02:14:49;;;;;;;47.60;22.83;;;;;;;-1.79;84.79;99278.02;124577;1144;23315;-73
2021/01/22 02:17:16;;;;;;;48.73;24.27;;;;;;;-1.80;84.75;99260.33;124496;1144;22635;-72
2021/01/22 02:19:58;;;;;;;46.40;22.50;;;;;;;-1.80;85.01;99266.50;124577;1144;22708;-72
2021/01/22 02:22:28;;;;;;;45.33;21.47;;;;;;;-1.81;84.78;99251.49;124395;1143;22732;-73
2021/01/22 02:24:56;;;;;;;49.17;23.77;;;;;;;-1.79;84.77;99256.66;124472;1144;22679;-72
2021/01/22 02:27:23;;;;;;;49.10;22.13;;;;;;;-1.77;85.23;99261.81;124445;1144;24047;-72
2021/01/22 02:29:53;;;;;;;46.20;23.77;;;;;;;-1.77;85.00;99264.48;124540;1144;23359;-72
2021/01/22 02:32:21;;;;;;;45.50;22.37;;;;;;;-1.76;84.99;99258.12;124493;1144;22674;-73
2021/01/22 02:34:48;;;;;;;46.53;22.00;;;;;;;-1.76;85.03;99250.12;124712;1142;22670;-73
2021/01/22 02:37:17;;;;;;;47.13;24.03;;;;;;;-1.74;85.05;99245.42;124482;1144;22704;-73
2021/01/22 02:39:48;;;;;;;47.20;23.57;;;;;;;-1.73;85.03;99241.74;124756;1143;22691;-72
2021/01/22 02:42:15;;;;;;;42.67;20.93;;;;;;;-1.74;85.21;99240.91;124493;1143;22746;-73
2021/01/22 02:44:43;;;;;;;47.47;23.83;;;;;;;-1.74;85.05;99238.24;124433;1143;22667;-73
2021/01/22 02:47:11;;;;;;;42.70;21.00;;;;;;;-1.73;85.14;99239.87;124679;1144;22742;-73
2021/01/22 02:49:38;;;;;;;45.63;23.63;;;;;;;-1.73;85.43;99234.53;124595;1143;22776;-73
2021/01/22 02:52:06;;;;;;;43.83;22.13;;;;;;;-1.73;85.17;99237.20;124665;1142;22741;-73
2021/01/22 02:54:34;;;;;;;42.67;22.37;;;;;;;-1.73;85.40;99236.41;124476;1144;22673;-73
2021/01/22 02:57:23;;;;;;;47.03;21.60;;;;;;;-1.74;85.34;99235.57;124742;1144;23997;-73
2021/01/22 02:59:59;;;;;;;;;;;;;;;-1.73;85.24;99223.05;124648;1144;23633;-72
2021/01/22 03:03:05;;;;;;;44.17;21.20;;;;;;;-1.74;85.47;99221.39;124493;1144;22342;-73
2021/01/22 03:05:35;;;;;;;36.87;19.37;;;;;;;-1.74;85.21;99218.72;124614;1144;22791;-72
2021/01/22 03:08:08;;;;;;;43.17;23.07;;;;;;;-1.81;85.24;99206.09;124365;1145;22689;-71
2021/01/22 03:10:37;;;;;;;40.63;22.13;;;;;;;-1.72;85.46;99217.49;124680;1144;22695;-73
2021/01/22 03:13:05;;;;;;;44.30;23.27;;;;;;;-1.72;85.33;99219.33;124519;1144;22690;-73
2021/01/22 03:15:33;;;;;;;44.20;22.60;;;;;;;-1.70;85.50;99222.65;124525;1144;22694;-72
2021/01/22 03:18:17;;;;;;;43.77;22.20;;;;;;;-1.67;85.25;99222.28;124622;1143;22772;-72
2021/01/22 03:20:46;;;;;;;43.97;21.57;;;;;;;-1.67;85.42;99209.76;124448;1144;23519;-73
2021/01/22 03:23:15;;;;;;;45.03;22.10;;;;;;;-1.64;85.42;99208.56;124579;1143;22690;-72
2021/01/22 03:25:42;;;;;;;48.57;22.03;;;;;;;-1.63;85.60;99215.56;124565;1142;22674;-73
2021/01/22 03:28:10;;;;;;;48.80;23.10;;;;;;;-1.64;85.58;99212.06;124710;1144;22806;-72
2021/01/22 03:30:38;;;;;;;44.60;23.47;;;;;;;-1.60;85.32;99220.53;124400;1144;22818;-73
2021/01/22 03:33:06;;;;;;;41.53;22.13;;;;;;;-1.61;85.54;99221.55;124553;1144;23339;-73
2021/01/22 03:35:34;;;;;;;44.63;21.97;;;;;;;-1.61;85.65;99221.55;124488;1143;22692;-73
2021/01/22 03:38:02;;;;;;;42.40;21.87;;;;;;;-1.59;85.44;99220.35;124566;1144;22685;-73
2021/01/22 03:40:29;;;;;;;45.63;22.83;;;;;;;-1.57;85.88;99220.97;124492;1144;22702;-73
2021/01/22 03:42:57;;;;;;;45.87;22.90;;;;;;;-1.55;85.72;99218.94;124548;1142;22683;-72
2021/01/22 03:45:24;;;;;;;42.90;21.83;;;;;;;-1.53;85.56;99221.42;124544;1144;22718;-72
2021/01/22 03:47:51;;;;;;;41.80;22.27;;;;;;;-1.54;85.55;99212.58;124688;1143;23739;-72
2021/01/22 03:50:19;;;;;;;45.43;21.73;;;;;;;-1.54;85.46;99217.09;124524;1144;22724;-73
2021/01/22 03:52:46;;;;;;;46.70;24.03;;;;;;;-1.52;85.31;99204.38;124598;1144;22705;-73
2021/01/22 03:55:14;;;;;;;44.00;23.40;;;;;;;-1.52;85.70;99210.55;124403;1145;23346;-72
2021/01/22 03:57:41;;;;;;;45.37;23.47;;;;;;;-1.52;85.73;99213.23;124426;1145;24278;-72
2021/01/22 04:00:09;;;;;;;44.93;24.37;;;;;;;-1.51;85.87;99203.38;124540;1144;23267;-72
2021/01/22 04:02:37;;;;;;;47.97;22.83;;;;;;;-1.50;85.69;99213.05;124647;1142;22777;-73
2021/01/22 04:05:05;;;;;;;41.90;22.43;;;;;;;-1.50;85.72;99213.88;124721;1144;23351;-72
2021/01/22 04:07:32;;;;;;;41.50;22.90;;;;;;;-1.49;85.64;99220.88;124721;1142;23282;-72
2021/01/22 04:10:00;;;;;;;42.77;22.73;;;;;;;-1.47;85.46;99220.69;124595;1142;23316;-72
2021/01/22 04:12:28;;;;;;;39.30;21.77;;;;;;;-1.46;85.71;99211.66;124679;1142;23195;-72
2021/01/22 04:14:56;;;;;;;43.63;22.83;;;;;;;-1.47;85.43;99216.17;124554;1144;22692;-72
2021/01/22 04:17:23;;;;;;;40.00;24.10;;;;;;;-1.53;85.68;99197.38;124455;1142;23495;-73
2021/01/22 04:19:51;;;;;;;46.40;23.90;;;;;;;-1.44;85.35;99207.75;124728;1144;22651;-72
2021/01/22 04:22:19;;;;;;;45.87;22.87;;;;;;;-1.44;86.13;99209.59;124585;1144;22699;-72
2021/01/22 04:24:46;;;;;;;45.83;22.57;;;;;;;-1.43;85.64;99208.58;124740;1144;22686;-72
2021/01/22 04:27:13;;;;;;;44.40;22.13;;;;;;;-1.41;85.29;99201.21;124494;1142;23510;-73
2021/01/22 04:29:40;;;;;;;47.43;23.33;;;;;;;-1.42;85.78;99197.71;124638;1144;22750;-73
2021/01/22 04:32:08;;;;;;;45.70;22.67;;;;;;;-1.43;85.72;99200.56;124580;1143;23484;-72
2021/01/22 04:34:35;;;;;;;40.50;21.40;;;;;;;-1.45;85.75;99195.44;124651;1143;22687;-73
2021/01/22 04:37:03;;;;;;;46.10;23.40;;;;;;;-1.43;85.94;99195.23;124574;1143;23508;-71
2021/01/22 04:39:32;;;;;;;44.67;23.60;;;;;;;-1.43;86.08;99209.41;124729;1144;22692;-73
2021/01/22 04:41:59;;;;;;;47.80;25.33;;;;;;;-1.42;85.56;99202.23;124508;1144;22698;-72
2021/01/22 04:44:28;;;;;;;43.27;23.33;;;;;;;-1.38;86.17;99197.34;124751;1142;22748;-73
2021/01/22 04:46:55;;;;;;;43.45;22.25;;;;;;;-1.36;85.98;99197.98;124460;1142;22850;-72
2021/01/22 04:49:23;;;;;;;44.77;22.20;;;;;;;-1.35;85.43;99200.47;124684;1144;22699;-73
2021/01/22 04:51:51;;;;;;;49.70;24.77;;;;;;;-1.32;85.43;99197.42;124435;1144;22687;-72
2021/01/22 04:54:29;;;;;;;47.57;23.23;;;;;;;-1.33;85.67;99189.59;124599;1144;23487;-73
2021/01/22 04:56:57;;;;;;;45.43;23.73;;;;;;;-1.32;85.99;99192.08;121250;1145;25015;-72
2021/01/22 04:59:30;;;;;;;47.40;23.73;;;;;;;-1.31;85.97;99204.42;124549;1144;22777;-72
2021/01/22 05:01:58;;;;;;;47.57;22.93;;;;;;;-1.30;85.87;99199.91;124736;1143;22762;-72
2021/01/22 05:04:26;;;;;;;42.67;21.33;;;;;;;-1.28;85.34;99197.84;124474;1144;23581;-72
2021/01/22 05:06:53;;;;;;;48.07;23.77;;;;;;;-1.27;85.32;99199.50;124529;1143;22701;-72
2021/01/22 05:09:20;;;;;;;42.35;22.65;;;;;;;-1.25;85.51;99198.30;124381;1144;22756;-72
2021/01/22 05:11:54;;;;;;;42.73;22.07;;;;;;;-1.24;85.82;99204.48;124528;1144;24851;-72
2021/01/22 05:14:21;;;;;;;48.47;23.43;;;;;;;-1.25;85.52;99206.32;124668;1144;22680;-72
2021/01/22 05:17:04;;;;;;;47.40;24.63;;;;;;;-1.23;85.63;99209.64;122086;1144;26798;-72
2021/01/22 05:19:36;;;;;;;48.37;24.27;;;;;;;-1.23;86.29;99200.79;124471;1144;22709;-72
2021/01/22 05:22:05;;;;;;;43.53;23.30;;;;;;;-1.22;86.07;99197.92;124816;1144;22644;-73
2021/01/22 05:24:36;;;;;;;43.80;22.97;;;;;;;-1.21;86.08;99204.93;124579;1144;22824;-73
2021/01/22 05:27:11;;;;;;;43.63;22.43;;;;;;;-1.19;85.68;99200.23;124709;1144;22688;-72
2021/01/22 05:29:42;;;;;;;45.97;24.30;;;;;;;-1.18;85.64;99198.38;124507;1144;22788;-72
2021/01/22 05:32:29;;;;;;;44.53;22.47;;;;;;;-1.17;86.14;99200.04;124590;1144;22718;-72
2021/01/22 05:34:57;;;;;;;47.62;23.55;;;;;;;-1.17;85.95;99205.39;124656;1144;22693;-72
2021/01/22 05:37:25;;;;;;;49.27;22.40;;;;;;;-1.19;85.50;99192.21;124489;1144;23507;-72
2021/01/22 05:40:12;;;;;;;44.90;24.10;;;;;;;-1.20;85.76;99211.94;124471;1144;24438;-72
2021/01/22 05:43:00;;;;;;;51.70;24.70;;;;;;;-1.20;86.21;99201.24;124447;1145;22786;-72
2021/01/22 05:45:44;;;;;;;49.57;24.87;;;;;;;-1.17;85.90;99203.55;124444;1144;22652;-72
2021/01/22 05:48:24;;;;;;;44.07;22.70;;;;;;;-1.16;85.48;99199.86;124590;1144;22695;-72
2021/01/22 05:50:57;;;;;;;45.57;23.60;;;;;;;-1.13;85.76;99198.62;124515;1143;22724;-72
2021/01/22 05:53:25;;;;;;;43.17;23.43;;;;;;;-1.13;85.53;99201.29;124595;1142;22698;-72
2021/01/22 05:56:13;;;;;;;46.17;25.30;;;;;;;-1.13;85.73;99211.98;123168;1144;22949;-72
2021/01/22 05:58:47;;;;;;;47.17;24.40;;;;;;;-1.12;85.98;99210.97;124654;1144;22729;-72
2021/01/22 06:01:16;;;;;;;51.77;25.20;;;;;;;-1.13;85.82;99210.14;124575;1144;23890;-72
2021/01/22 06:03:48;;;;;;;50.80;26.73;;;;;;;-1.10;85.95;99212.44;124602;1144;22746;-72
2021/01/22 06:06:17;;;;;;;49.30;24.80;;;;;;;-1.10;85.29;99212.44;124517;1143;23480;-72
2021/01/22 06:08:54;;;;;;;51.80;26.77;;;;;;;-1.10;85.52;99224.98;124590;1145;22840;-73
2021/01/22 06:11:25;;;;;;;43.60;24.18;;;;;;;-1.08;85.71;99213.08;124447;1144;22674;-73
2021/01/22 06:13:54;;;;;;;48.63;25.30;;;;;;;-1.10;85.35;99223.13;124479;1142;22673;-70
2021/01/22 06:16:25;;;;;;;52.77;26.83;;;;;;;-1.11;85.67;99208.11;124598;1142;23465;-73
2021/01/22 06:19:06;;;;;;;44.90;22.73;;;;;;;-1.10;85.80;99206.27;124610;1142;22770;-73
2021/01/22 06:21:40;;;;;;;48.20;22.77;;;;;;;-1.09;85.74;99214.09;124364;1143;22756;-70
2021/01/22 06:24:08;;;;;;;43.37;23.37;;;;;;;-1.08;86.23;99204.23;124573;1144;22668;-69
2021/01/22 06:26:37;;;;;;;47.50;24.33;;;;;;;-1.07;85.50;99204.05;124286;1145;22717;-69
2021/01/22 06:29:09;;;;;;;52.60;26.23;;;;;;;-1.05;85.46;99192.33;124562;1144;22718;-69
2021/01/22 06:31:37;;;;;;;48.10;25.50;;;;;;;-1.04;85.80;99210.86;124237;1144;22836;-71
2021/01/22 06:34:05;;;;;;;42.77;24.03;;;;;;;-1.06;86.40;99202.20;124633;1144;23450;-71
2021/01/22 06:36:32;;;;;;;48.03;24.47;;;;;;;-1.02;85.68;99202.66;124375;1142;22704;-70
2021/01/22 06:39:00;;;;;;;50.60;26.70;;;;;;;-1.00;86.09;99200.59;124540;1142;22958;-69
2021/01/22 06:41:28;;;;;;;48.70;25.60;;;;;;;-0.98;86.21;99202.05;124429;1143;23290;-68
2021/01/22 06:43:59;;;;;;;55.17;28.07;;;;;;;-0.99;85.47;99196.89;124674;1144;22664;-69
2021/01/22 06:46:27;;;;;;;59.87;29.90;;;;;;;-0.99;85.32;99191.55;124416;1143;24133;-68
2021/01/22 06:49:02;;;;;;;47.30;25.80;;;;;;;-1.00;85.57;99204.09;124605;1143;22666;-69
2021/01/22 06:51:37;;;;;;;44.60;23.83;;;;;;;-0.99;85.79;99197.72;124577;1144;22709;-66
2021/01/22 06:54:16;;;;;;;49.27;26.13;;;;;;;-0.96;86.07;99186.66;124384;1144;23509;-67
2021/01/22 06:56:43;;;;;;;47.03;24.97;;;;;;;-0.96;86.24;99197.34;124461;1144;22679;-67
2021/01/22 06:59:30;;;;;;;46.83;24.77;;;;;;;-0.94;85.77;99194.48;124483;1144;22775;-66
2021/01/22 07:01:58;;;;;;;53.13;26.53;;;;;;;-0.92;86.08;99201.30;124573;1144;22755;-69
2021/01/22 07:04:37;;;;;;;49.47;23.93;;;;;;;-0.88;85.57;99199.08;124580;1143;23154;-69
2021/01/22 07:07:09;;;;;;;48.50;25.67;;;;;;;-0.83;86.33;99194.78;124529;1144;22807;-69
2021/01/22 07:09:44;;;;;;;50.03;25.17;;;;;;;-0.81;86.08;99189.25;124438;1145;22690;-69
2021/01/22 07:12:13;;;;;;;45.70;24.23;;;;;;;-0.79;85.78;99187.21;124532;1144;22677;-69
2021/01/22 07:14:48;;;;;;;48.77;26.20;;;;;;;-0.78;85.67;99191.55;124529;1144;22705;-69
2021/01/22 07:17:16;;;;;;;52.67;27.17;;;;;;;-0.77;85.62;99188.68;124533;1144;22728;-69
2021/01/22 07:19:53;;;;;;;52.00;28.50;;;;;;;-0.74;86.21;99185.63;124388;1144;22695;-69
2021/01/22 07:22:21;;;;;;;50.17;24.87;;;;;;;-0.71;86.04;99203.11;124611;1143;22675;-69
2021/01/22 07:24:50;;;;;;;49.77;27.33;;;;;;;-0.70;85.74;99194.06;124288;1143;23661;-69
2021/01/22 07:27:17;;;;;;;55.73;29.40;;;;;;;-0.68;85.32;99188.52;124636;1143;22728;-69
2021/01/22 07:30:08;;;;;;;55.13;29.63;;;;;;;-0.64;85.29;99195.98;124300;1144;22729;-69
2021/01/22 07:32:37;;;;;;;51.07;27.20;;;;;;;-0.62;85.68;99196.61;124629;1144;22704;-69
2021/01/22 07:35:21;;;;;;;45.67;24.80;;;;;;;-0.58;85.23;99195.22;124281;1144;23348;-69
2021/01/22 07:37:48;;;;;;;48.30;24.33;;;;;;;-0.53;85.21;99199.96;124597;1142;22672;-69
2021/01/22 07:40:16;;;;;;;45.43;25.00;;;;;;;-0.51;86.22;99193.39;124569;1142;22699;-67
2021/01/22 07:42:43;;;;;;;49.43;26.67;;;;;;;-0.48;85.25;99186.83;124578;1143;22739;-67
2021/01/22 07:45:12;;;;;;;67.07;33.77;;;;;;;-0.45;85.49;99187.28;124424;1144;22703;-67
2021/01/22 07:47:47;;;;;;;53.43;28.30;;;;;;;-0.43;86.04;99187.88;124459;1144;22670;-68
2021/01/22 07:50:18;;;;;;;55.80;29.77;;;;;;;-0.36;85.27;99190.62;124305;1145;22795;-67
2021/01/22 07:52:49;;;;;;;57.77;29.47;;;;;;;-0.33;85.98;99197.43;124543;1143;22671;-67
2021/01/22 07:55:20;;;;;;;49.63;27.27;;;;;;;-0.31;85.62;99198.89;124516;1142;22684;-67
2021/01/22 07:58:04;;;;;;;56.57;28.90;;;;;;;-0.29;84.82;99188.83;124571;1144;22788;-66
2021/01/22 08:00:38;;;;;;;55.87;28.90;;;;;;;-0.34;85.49;99177.87;124305;1144;23762;-67
2021/01/22 08:03:05;;;;;;;70.20;34.53;;;;;;;-0.23;84.97;99193.37;124586;1144;22686;-67
2021/01/22 08:05:34;;;;;;;55.73;29.40;;;;;;;-0.18;84.61;99198.98;124463;1143;23211;-67
2021/01/22 08:08:17;;;;;;;45.10;24.83;;;;;;;-0.14;84.94;99199.39;124543;1144;22725;-65
2021/01/22 08:10:45;;;;;;;49.45;25.95;;;;;;;-0.12;84.68;99192.81;124407;1144;22725;-67
2021/01/22 08:13:16;;;;;;;48.80;25.83;;;;;;;-0.08;85.75;99188.73;124469;1144;22856;-65
2021/01/22 08:15:44;;;;;;;49.53;27.60;;;;;;;-0.03;85.01;99188.14;124567;1142;22687;-67
2021/01/22 08:18:15;;;;;;;47.77;27.13;;;;;;;0.00;85.12;99188.55;124402;1144;22700;-68
2021/01/22 08:20:49;;;;;;;48.77;27.10;;;;;;;0.06;84.98;99184.27;124529;1144;22676;-68
2021/01/22 08:23:21;;;;;;;50.80;27.10;;;;;;;0.13;85.22;99195.02;124609;1143;22693;-67
2021/01/22 08:25:48;;;;;;;45.90;25.60;;;;;;;0.16;84.42;99191.92;124335;1144;22700;-66
2021/01/22 08:28:15;;;;;;;50.10;25.17;;;;;;;0.19;84.98;99189.68;124493;1144;22683;-68
2021/01/22 08:30:43;;;;;;;45.03;24.83;;;;;;;0.24;84.24;99194.45;124469;1144;22711;-67
2021/01/22 08:33:10;;;;;;;44.23;24.67;;;;;;;0.28;83.42;99193.86;124517;1144;22694;-67
2021/01/22 08:35:39;;;;;;;44.47;24.50;;;;;;;0.30;83.57;99189.09;123572;1144;22918;-69
2021/01/22 08:38:06;;;;;;;47.83;26.50;;;;;;;0.33;83.22;99198.59;124414;1144;22781;-69
2021/01/22 08:40:37;;;;;;;43.50;24.85;;;;;;;0.35;83.14;99194.70;124659;1142;22922;-67
2021/01/22 08:43:07;;;;;;;46.60;26.50;;;;;;;0.37;84.14;99193.67;124576;1144;22753;-69
2021/01/22 08:45:34;;;;;;;47.87;26.50;;;;;;;0.40;84.04;99179.88;124765;1142;22682;-67
2021/01/22 08:48:03;;;;;;;49.13;27.00;;;;;;;0.38;83.35;99180.08;124543;1142;23762;-69
2021/01/22 08:50:31;;;;;;;48.20;26.77;;;;;;;0.40;83.90;99169.16;124771;1144;22709;-67
2021/01/22 08:53:14;;;;;;;49.50;29.03;;;;;;;0.41;82.90;99177.00;124678;1142;23338;-69
2021/01/22 08:55:42;;;;;;;49.17;26.83;;;;;;;0.43;83.64;99171.45;124774;1143;22691;-69
2021/01/22 08:58:10;;;;;;;50.40;28.30;;;;;;;0.46;83.59;99168.34;124645;1144;22691;-67
2021/01/22 09:00:39;;;;;;;43.75;25.70;;;;;;;0.50;82.74;99166.91;124671;1144;22669;-68
2021/01/22 09:03:23;;;;;;;50.40;28.90;;;;;;;0.47;83.28;99164.63;124555;1144;22646;-68
2021/01/22 09:05:51;;;;;;;50.90;29.25;;;;;;;0.52;82.65;99154.97;124708;1143;22746;-68
2021/01/22 09:08:23;;;;;;;50.33;26.60;;;;;;;0.56;82.82;99160.76;124458;1144;23685;-68
2021/01/22 09:10:51;;;;;;;49.15;26.75;;;;;;;0.58;83.42;99170.22;124583;1142;22723;-69
2021/01/22 09:13:27;;;;;;;46.00;26.83;;;;;;;0.60;82.30;99170.85;124534;1144;22647;-69
2021/01/22 09:16:04;;;;;;;48.73;28.10;;;;;;;0.66;83.27;99163.86;124682;1142;22695;-68
2021/01/22 09:18:31;;;;;;;;;;;;;;;0.67;83.07;99155.63;124606;1143;23296;-70
2021/01/22 09:21:04;;;;;;;45.48;25.23;;;;;;;0.70;81.92;99157.08;124524;1144;21421;-68
2021/01/22 09:23:33;;;;;;;44.90;24.63;;;;;;;0.72;82.08;99155.02;124450;1144;23226;-68
2021/01/22 09:26:00;;;;;;;48.97;27.53;;;;;;;0.75;82.82;99146.55;124772;1142;22700;-68
2021/01/22 09:28:29;;;;;;;47.87;27.13;;;;;;;0.78;82.50;99139.95;124502;1142;22729;-68
2021/01/22 09:30:56;;;;;;;48.35;25.40;;;;;;;0.80;82.56;99144.09;124595;1144;22764;-68
2021/01/22 09:33:24;;;;;;;42.73;24.27;;;;;;;0.85;81.90;99141.63;124522;1143;22678;-68
2021/01/22 09:35:59;;;;;;;45.10;23.63;;;;;;;0.90;82.75;99135.63;124523;1145;22942;-69
2021/01/22 09:38:28;;;;;;;43.60;25.23;;;;;;;0.94;82.31;99136.88;124202;1145;22675;-68
2021/01/22 09:40:55;;;;;;;45.45;26.60;;;;;;;0.98;81.76;99136.27;124331;1144;22695;-68
2021/01/22 09:43:22;;;;;;;42.83;25.73;;;;;;;1.03;82.16;99130.27;124583;1144;22683;-68
2021/01/22 09:47:46;;;;;;;43.70;25.07;;;;;;;1.09;81.92;99128.63;120132;1147;23069;-68
2021/01/22 09:50:15;;;;;;;46.13;26.47;;;;;;;1.11;81.06;99121.20;120073;1148;22977;-69
2021/01/22 09:52:42;;;;;;;43.20;24.50;;;;;;;1.14;81.17;99124.31;124448;1147;22756;-68
2021/01/22 09:55:13;;;;;;;39.45;24.45;;;;;;;1.17;81.39;99123.05;124312;1146;24971;-69
2021/01/22 09:57:41;;;;;;;42.30;24.60;;;;;;;1.19;81.83;99119.13;124295;1147;22985;-69
2021/01/22 10:00:09;;;;;;;37.37;21.87;;;;;;;1.25;80.59;99115.63;124212;1147;22872;-70
2021/01/22 10:02:37;;;;;;;42.27;23.43;;;;;;;1.31;81.25;99108.58;124418;1147;22683;-70
2021/01/22 10:05:05;;;;;;;40.45;22.40;;;;;;;1.36;80.97;99114.98;124381;1146;23858;-70
2021/01/22 10:07:34;;;;;;;42.80;23.20;;;;;;;1.40;80.81;99102.80;124407;1147;22699;-70
2021/01/22 10:10:03;;;;;;;42.10;23.50;;;;;;;1.46;80.33;99098.44;124238;1147;23993;-68
2021/01/22 10:12:31;;;;;;;43.57;24.73;;;;;;;1.52;80.58;99100.30;124346;1147;22676;-68
2021/01/22 10:14:58;;;;;;;38.00;23.25;;;;;;;1.60;80.13;99102.74;124207;1147;22728;-69
2021/01/22 10:17:27;;;;;;;44.30;23.50;;;;;;;1.65;79.86;99097.58;124467;1147;23255;-67
2021/01/22 10:19:55;;;;;;;40.77;22.87;;;;;;;1.72;79.50;99094.89;124123;1147;22649;-67
2021/01/22 10:22:22;;;;;;;38.77;22.13;;;;;;;1.76;79.08;99094.23;124385;1148;22705;-68
2021/01/22 10:24:50;;;;;;;38.17;23.13;;;;;;;1.74;79.05;99077.50;124139;1146;23250;-69
2021/01/22 10:27:18;;;;;;;40.35;23.90;;;;;;;1.83;79.33;99088.02;124237;1147;22797;-68
2021/01/22 10:29:45;;;;;;;40.57;24.60;;;;;;;1.77;78.82;99068.20;124369;1148;23620;-68
2021/01/22 10:32:13;;;;;;;41.40;24.70;;;;;;;1.91;79.15;99085.91;124129;1147;22656;-68
2021/01/22 10:34:41;;;;;;;39.40;23.90;;;;;;;1.97;78.17;99081.56;124451;1146;22705;-68
2021/01/22 10:37:08;;;;;;;38.20;24.07;;;;;;;2.03;78.35;99076.14;124267;1148;22721;-68
2021/01/22 10:39:37;;;;;;;40.07;23.13;;;;;;;2.07;78.26;99072.00;124335;1145;22651;-68
2021/01/22 10:42:05;;;;;;;43.65;25.50;;;;;;;2.08;78.06;99068.27;124081;1148;22734;-68
2021/01/22 10:44:32;;;;;;;37.77;23.73;;;;;;;2.12;78.25;99065.98;124320;1147;23232;-67
2021/01/22 10:47:02;;;;;;;42.43;25.20;;;;;;;2.13;78.03;99068.47;120846;1149;22927;-67
2021/01/22 10:49:30;;;;;;;48.37;26.90;;;;;;;2.14;77.48;99053.17;124223;1148;22813;-68
2021/01/22 10:51:58;;;;;;;58.00;33.70;;;;;;;2.16;77.64;99047.58;124145;1147;22675;-68
2021/01/22 10:54:25;;;;;;;41.50;26.13;;;;;;;2.16;77.67;99047.58;124410;1146;23317;-68
2021/01/22 10:56:52;;;;;;;43.00;25.65;;;;;;;2.15;77.75;99043.24;124125;1147;22743;-68
2021/01/22 10:59:20;;;;;;;50.13;28.73;;;;;;;2.16;76.96;99040.34;124365;1146;22835;-68
2021/01/22 11:01:48;;;;;;;51.43;28.90;;;;;;;2.15;77.43;99041.38;124231;1145;22655;-68
2021/01/22 11:04:15;;;;;;;52.13;29.87;;;;;;;2.16;76.75;99039.52;124390;1148;22679;-68
2021/01/22 11:06:42;;;;;;;49.13;27.93;;;;;;;2.15;76.56;99044.07;124224;1148;22805;-68
2021/01/22 11:09:10;;;;;;;39.93;26.57;;;;;;;2.18;77.24;99032.86;124228;1147;22676;-68
2021/01/22 11:11:37;;;;;;;39.67;24.97;;;;;;;2.21;76.45;99023.55;124322;1145;22753;-67
2021/01/22 11:14:05;;;;;;;42.45;23.90;;;;;;;2.25;77.02;99022.91;124347;1146;22690;-69
2021/01/22 11:16:32;;;;;;;46.53;26.20;;;;;;;2.29;76.85;99013.38;124356;1148;22775;-69
2021/01/22 11:19:00;;;;;;;39.55;23.55;;;;;;;2.35;77.10;99017.05;123981;1148;22647;-68
2021/01/22 11:21:28;;;;;;;40.33;24.40;;;;;;;2.39;76.55;99016.41;124219;1148;22676;-68
2021/01/22 11:23:55;;;;;;;43.20;26.30;;;;;;;2.41;76.37;99011.64;124130;1148;22726;-69
2021/01/22 11:26:23;;;;;;;39.40;24.70;;;;;;;2.44;75.77;99016.59;124201;1148;22695;-69